Thunderstorms From: 15-12-2017 06:00 Until: 16-12-2017 06:00 warning for: Thunderstorms Level: Yellow info button

Although rather usual in this region, locally or potentially dangerous phenomena are expected. (such as local winds, summer thunderstorms, rising streams or high waves) Be aware and pay attention to the latest weather updates, especially if you carry out activities exposed to weather or close to a stream or shoreline. 


Meteo18 Weather Cam more information Meteo18 Weather Cam


warning for Thunderstorms more information blitzortung!


Rain radar more information rain snow radar


Visit our other weather sites:

Template documentation
and downloads

And another site



Weather Underground History page Text

Daily Summary for June 22, 2017 Units:  English    Metric   Both
« Previous Day
Next Day »
Daily Weekly Monthly Yearly Custom
  High: Low: Average:
Temperature: 93.4 °F 66.4 °F 81.5 °F
Dew Point: 68.4 °F 48.4 °F 60.6 °F
Humidity: 89 % 22 % 55 %
Wind Speed: 13 mph 0 mph 3.2 mph
Wind Gust: 17 mph - -
Wind:- - WSW
Pressure: 30 in 30 in -
Precipitation: 0 in    
Historical Graphs
 
 
Tabular Data for June 22, 2017
Time Temperature Dew Point Pressure Wind Wind Speed Wind Gust Humidity Rainfall Rate (Hourly)
00:02 78.1 °F 68.4 °F 30 in Calm     72 % 0 in
00:07 77.9 °F 68.2 °F 30 in Calm     72 % 0 in
00:12 77.5 °F 68.2 °F 30 in Calm     73 % 0 in
00:17 77.2 °F 68.2 °F 30 in Calm     74 % 0 in
00:22 77.2 °F 68.2 °F 30 in Calm     74 % 0 in
00:27 76.8 °F 67.8 °F 30 in Calm     74 % 0 in
00:32 76.6 °F 68.2 °F 30 in Calm     75 % 0 in
00:37 76.5 °F 68.4 °F 30 in Calm     76 % 0 in
00:42 76.5 °F 68 °F 30 in Calm     75 % 0 in
00:52 76.1 °F 68 °F 30 in Calm     76 % 0 in
01:02 76.6 °F 68.2 °F 30 in Calm     75 % 0 in
01:12 75.9 °F 67.8 °F 30 in Calm     76 % 0 in
01:17 75.6 °F 67.8 °F 30 in Calm     77 % 0 in
01:22 75 °F 67.6 °F 30 in Calm     78 % 0 in
01:32 74.5 °F 67.5 °F 30 in Calm     79 % 0 in
01:42 74.1 °F 67.6 °F 30 in Calm     80 % 0 in
01:52 73.9 °F 67.5 °F 30 in Calm     80 % 0 in
02:02 73.6 °F 67.1 °F 30 in Calm     80 % 0 in
02:07 73 °F 66.9 °F 30 in Calm     81 % 0 in
02:12 73 °F 67.6 °F 30 in Calm     83 % 0 in
02:17 73 °F 67.6 °F 30 in Calm     83 % 0 in
02:22 72.9 °F 67.5 °F 30 in Calm     83 % 0 in
02:27 72.9 °F 67.5 °F 30 in Calm     83 % 0 in
02:32 72.9 °F 67.5 °F 30 in Calm     83 % 0 in
02:37 72.9 °F 67.5 °F 30 in Calm     83 % 0 in
02:42 72.9 °F 67.5 °F 30 in Calm     83 % 0 in
02:47 72.9 °F 67.5 °F 30 in Calm     83 % 0 in
02:52 72.9 °F 67.1 °F 30 in Calm     82 % 0 in
03:02 72.3 °F 66.9 °F 30 in Calm     83 % 0 in
03:12 71.8 °F 66.7 °F 30 in Calm     84 % 0 in
03:17 71.6 °F 66.9 °F 30 in Calm     85 % 0 in
03:22 71.4 °F 66.7 °F 30 in Calm     85 % 0 in
03:32 70.9 °F 66.6 °F 30 in Calm     86 % 0 in
03:42 70.5 °F 66.2 °F 30 in Calm     86 % 0 in
03:47 70.3 °F 66 °F 30 in Calm     86 % 0 in
03:52 70.2 °F 65.8 °F 30 in Calm     86 % 0 in
03:57 70 °F 66 °F 30 in Calm     87 % 0 in
04:02 70 °F 65.7 °F 30 in Calm     86 % 0 in
04:12 70.2 °F 65.5 °F 30 in Calm     85 % 0 in
04:17 70.3 °F 65.3 °F 30 in Calm     84 % 0 in
04:22 70.3 °F 65.3 °F 30 in Calm     84 % 0 in
04:32 70 °F 64.9 °F 30 in Calm     84 % 0 in
04:42 69.4 °F 64.8 °F 30 in Calm     85 % 0 in
04:47 69.3 °F 64.6 °F 30 in Calm     85 % 0 in
04:52 68.9 °F 64.2 °F 30 in Calm     85 % 0 in
05:02 68.5 °F 63.9 °F 30 in Calm     85 % 0 in
05:12 68 °F 64 °F 30 in Calm     87 % 0 in
05:17 67.6 °F 64 °F 30 in Calm     88 % 0 in
05:22 67.5 °F 63.9 °F 30 in Calm     88 % 0 in
05:32 67.1 °F 63.5 °F 30 in Calm     88 % 0 in
05:42 66.7 °F 63.1 °F 30 in Calm     88 % 0 in
05:52 66.4 °F 63 °F 30 in Calm     89 % 0 in
06:02 66.4 °F 63 °F 30 in Calm     89 % 0 in
06:12 66.6 °F 63.1 °F 30 in SSW 1 mph   89 % 0 in
06:17 66.9 °F 63.5 °F 30 in Calm   2 mph 89 % 0 in
06:22 66.6 °F 63 °F 30 in Calm   2 mph 88 % 0 in
06:32 67.3 °F 63.9 °F 30 in Calm   2 mph 89 % 0 in
06:42 67.6 °F 64 °F 30 in Calm   3 mph 88 % 0 in
06:47 67.8 °F 63.9 °F 30 in SSE 1 mph 1 mph 87 % 0 in
06:52 68 °F 64 °F 30 in Calm   1 mph 87 % 0 in
07:02 68.7 °F 64.4 °F 30 in Calm   1 mph 86 % 0 in
07:12 69.4 °F 64.4 °F 30 in Calm   1 mph 84 % 0 in
07:17 70 °F 64.9 °F 30 in Calm     84 % 0 in
07:22 70.5 °F 65.1 °F 30 in Calm     83 % 0 in
07:32 71.2 °F 65.8 °F 30 in SW 1 mph   83 % 0 in
07:42 71.4 °F 65.3 °F 30 in SSW 1 mph 1 mph 81 % 0 in
07:47 71.4 °F 65.7 °F 30 in SSW 1 mph 1 mph 82 % 0 in
07:52 71.4 °F 65.3 °F 30 in Calm   1 mph 81 % 0 in
08:02 72.1 °F 65.7 °F 30 in Calm   3 mph 80 % 0 in
08:07 72.3 °F 65.8 °F 30 in SSW 1 mph 3 mph 80 % 0 in
08:12 72.9 °F 66.4 °F 30 in Calm   3 mph 80 % 0 in
08:17 73 °F 65.8 °F 30 in SW 5 mph 5 mph 78 % 0 in
08:22 73.2 °F 66 °F 30 in SSW 4 mph 4 mph 78 % 0 in
08:32 73.9 °F 66.6 °F 30 in SSW 3 mph 5 mph 78 % 0 in
08:42 74.8 °F 66.7 °F 30 in SSW 1 mph 5 mph 76 % 0 in
08:47 75.4 °F 66.2 °F 30 in SW 8 mph 8 mph 73 % 0 in
08:52 75.7 °F 66 °F 30 in South 4 mph 7 mph 72 % 0 in
09:02 76.6 °F 65.3 °F 30 in South 4 mph 10 mph 68 % 0 in
09:07 77 °F 64.4 °F 30 in SW 2 mph 9 mph 65 % 0 in
09:12 77.7 °F 64.9 °F 30 in SW 2 mph 9 mph 65 % 0 in
09:17 78.1 °F 65.3 °F 30 in SW 3 mph 6 mph 65 % 0 in
09:22 78.3 °F 64.2 °F 30 in WSW 3 mph 6 mph 62 % 0 in
09:32 78.6 °F 64 °F 30 in SW 5 mph 9 mph 61 % 0 in
09:42 79.3 °F 64.2 °F 30 in SSW 4 mph 10 mph 60 % 0 in
09:52 79.9 °F 62.8 °F 30 in West 8 mph 9 mph 56 % 0 in
10:02 80.2 °F 63.7 °F 30 in SSW 1 mph 11 mph 57 % 0 in
10:12 81.1 °F 63.5 °F 30 in WSW 6 mph 11 mph 55 % 0 in
10:17 81.5 °F 63.9 °F 30 in South 4 mph 9 mph 55 % 0 in
10:22 81.7 °F 63 °F 30 in SW 5 mph 9 mph 53 % 0 in
10:27 81.9 °F 64 °F 30 in SW 7 mph 9 mph 55 % 0 in
10:32 81.9 °F 63 °F 30 in SW 5 mph 9 mph 53 % 0 in
10:42 82 °F 61.5 °F 30 in WSW 9 mph 10 mph 50 % 0 in
10:47 82.2 °F 61.2 °F 30 in SW 10 mph 11 mph 49 % 0 in
10:52 82.2 °F 61.2 °F 30 in West 4 mph 11 mph 49 % 0 in
11:02 82.8 °F 61.7 °F 30 in West 3 mph 14 mph 49 % 0 in
11:12 82.8 °F 61.7 °F 30 in SW 12 mph 14 mph 49 % 0 in
11:17 82.9 °F 60.1 °F 30 in WSW 6 mph 14 mph 46 % 0 in
11:22 83.3 °F 60.4 °F 30 in West 7 mph 14 mph 46 % 0 in
11:32 83.8 °F 62.1 °F 30 in SSW 3 mph 14 mph 48 % 0 in
11:42 84.4 °F 60.8 °F 30 in SW 6 mph 14 mph 45 % 0 in
11:47 84.9 °F 61.9 °F 30 in WSW 5 mph 12 mph 46 % 0 in
11:52 85.5 °F 60.4 °F 30 in SW 4 mph 12 mph 43 % 0 in
12:02 85.6 °F 59.9 °F 30 in SSW 4 mph 12 mph 42 % 0 in
12:12 86.4 °F 57.7 °F 30 in West 6 mph 14 mph 38 % 0 in
12:17 86.5 °F 58.6 °F 30 in SW 5 mph 13 mph 39 % 0 in
12:27 87.1 °F 56.8 °F 30 in SW 8 mph 14 mph 36 % 0 in
12:32 87.3 °F 55.4 °F 30 in WSW 9 mph 14 mph 34 % 0 in
12:42 87.6 °F 53.2 °F 30 in SW 4 mph 15 mph 31 % 0 in
12:47 88 °F 52.7 °F 30 in WSW 13 mph 15 mph 30 % 0 in
12:52 88.2 °F 53.8 °F 30 in SW 11 mph 15 mph 31 % 0 in
13:02 88 °F 54.5 °F 30 in SW 8 mph 16 mph 32 % 0 in
13:12 88.3 °F 56.5 °F 30 in West 9 mph 17 mph 34 % 0 in
13:17 88.5 °F 54.9 °F 30 in West 7 mph 15 mph 32 % 0 in
13:22 88.9 °F 54.3 °F 30 in WSW 4 mph 15 mph 31 % 0 in
13:32 88.9 °F 53.4 °F 30 in SW 6 mph 14 mph 30 % 0 in
13:37 89.2 °F 53.8 °F 30 in West 9 mph 16 mph 30 % 0 in
13:42 89.4 °F 54.9 °F 30 in SW 6 mph 16 mph 31 % 0 in
13:47 89.8 °F 53.2 °F 30 in West 6 mph 17 mph 29 % 0 in
13:52 90 °F 52.5 °F 30 in West 10 mph 17 mph 28 % 0 in
13:57 89.6 °F 52.2 °F 30 in SW 4 mph 17 mph 28 % 0 in
14:02 89.6 °F 51.3 °F 30 in West 12 mph 17 mph 27 % 0 in
14:07 89.8 °F 54.1 °F 30 in WSW 11 mph 17 mph 30 % 0 in
14:12 90 °F 51.4 °F 30 in SSW 8 mph 17 mph 27 % 0 in
14:17 90.3 °F 53.8 °F 30 in WSW 9 mph 15 mph 29 % 0 in
14:22 90.5 °F 52.9 °F 30 in WSW 8 mph 15 mph 28 % 0 in
14:32 90.9 °F 52.3 °F 30 in SW 12 mph 16 mph 27 % 0 in
14:37 91 °F 50.4 °F 30 in WNW 7 mph 14 mph 25 % 0 in
14:42 91.2 °F 52.5 °F 30 in WSW 7 mph 14 mph 27 % 0 in
14:47 91.6 °F 51.8 °F 30 in WSW 9 mph 15 mph 26 % 0 in
14:52 91.8 °F 52 °F 30 in WNW 7 mph 15 mph 26 % 0 in
15:02 92.1 °F 52.3 °F 30 in West 6 mph 15 mph 26 % 0 in
15:12 92.5 °F 51.6 °F 30 in WSW 4 mph 15 mph 25 % 0 in
15:17 92.7 °F 50.5 °F 30 in West 8 mph 15 mph 24 % 0 in
15:22 92.8 °F 50.7 °F 30 in West 7 mph 15 mph 24 % 0 in
15:27 92.8 °F 48.4 °F 30 in SW 8 mph 17 mph 22 % 0 in
15:32 92.8 °F 50.7 °F 30 in WSW 5 mph 17 mph 24 % 0 in
15:37 92.7 °F 50.5 °F 30 in WSW 6 mph 17 mph 24 % 0 in
15:42 92.7 °F 51.6 °F 30 in SW 6 mph 17 mph 25 % 0 in
15:47 92.8 °F 50.7 °F 30 in West 9 mph 16 mph 24 % 0 in
15:52 92.7 °F 51.6 °F 30 in WSW 6 mph 16 mph 25 % 0 in
15:57 92.7 °F 51.6 °F 30 in West 6 mph 14 mph 25 % 0 in
16:02 92.5 °F 51.6 °F 30 in WSW 8 mph 14 mph 25 % 0 in
16:12 92.8 °F 54 °F 30 in West 8 mph 14 mph 27 % 0 in
16:17 93.2 °F 54.3 °F 30 in WSW 13 mph 13 mph 27 % 0 in
16:22 92.7 °F 53.8 °F 30 in West 11 mph 13 mph 27 % 0 in
16:32 93.4 °F 54.3 °F 30 in West 10 mph 13 mph 27 % 0 in
16:42 93.2 °F 54.3 °F 30 in WSW 6 mph 12 mph 27 % 0 in
16:52 93.4 °F 54.3 °F 30 in SW 8 mph 11 mph 27 % 0 in
16:57 92.8 °F 54.9 °F 30 in West 5 mph 14 mph 28 % 0 in
17:02 93.2 °F 54.3 °F 30 in WSW 4 mph 14 mph 27 % 0 in
17:07 93.2 °F 54.3 °F 30 in West 10 mph 14 mph 27 % 0 in
17:12 92.8 °F 54.9 °F 30 in WNW 4 mph 14 mph 28 % 0 in
17:17 93 °F 56.1 °F 30 in WNW 6 mph 13 mph 29 % 0 in
17:27 93 °F 54.1 °F 30 in West 7 mph 14 mph 27 % 0 in
17:32 93 °F 55 °F 30 in WSW 9 mph 14 mph 28 % 0 in
17:42 92.8 °F 54.9 °F 30 in West 6 mph 15 mph 28 % 0 in
17:47 92.8 °F 54.9 °F 30 in WSW 8 mph 12 mph 28 % 0 in
17:52 92.8 °F 54.9 °F 30 in West 9 mph 12 mph 28 % 0 in
17:57 92.8 °F 54.9 °F 30 in West 10 mph 14 mph 28 % 0 in
18:02 92.7 °F 54.9 °F 30 in West 10 mph 14 mph 28 % 0 in
18:12 92.5 °F 53.6 °F 30 in West 9 mph 14 mph 27 % 0 in
18:17 92.5 °F 55.6 °F 30 in West 5 mph 14 mph 29 % 0 in
18:22 92.5 °F 54.7 °F 30 in WSW 7 mph 11 mph 28 % 0 in
18:32 92.7 °F 54.9 °F 30 in West 3 mph 11 mph 28 % 0 in
18:42 92.5 °F 55.6 °F 30 in West 6 mph 10 mph 29 % 0 in
18:47 92.1 °F 55.2 °F 30 in West 7 mph 12 mph 29 % 0 in
18:52 92.1 °F 55.2 °F 30 in SW 4 mph 12 mph 29 % 0 in
18:57 92.1 °F 56.3 °F 30 in SW 4 mph 12 mph 30 % 0 in
19:02 92.1 °F 57.2 °F 30 in WSW 7 mph 12 mph 31 % 0 in
19:07 92.1 °F 56.3 °F 30 in SW 2 mph 9 mph 30 % 0 in
19:12 92.1 °F 57.2 °F 30 in SW 4 mph 9 mph 31 % 0 in
19:17 92.1 °F 57.2 °F 30 in West 2 mph 9 mph 31 % 0 in
19:22 92.1 °F 57.2 °F 30 in WNW 4 mph 9 mph 31 % 0 in
19:32 91.9 °F 57 °F 30 in SW 3 mph 7 mph 31 % 0 in
19:37 91.8 °F 57.7 °F 30 in West 3 mph 6 mph 32 % 0 in
19:42 91.9 °F 57.9 °F 30 in Calm   6 mph 32 % 0 in
19:52 91.8 °F 58.6 °F 30 in West 2 mph 6 mph 33 % 0 in
19:57 91.8 °F 58.6 °F 30 in WSW 2 mph 5 mph 33 % 0 in
20:02 91.6 °F 58.5 °F 30 in Calm   5 mph 33 % 0 in
20:12 91.6 °F 59.2 °F 30 in WSW 3 mph 4 mph 34 % 0 in
20:17 91 °F 58.8 °F 30 in Calm   4 mph 34 % 0 in
20:22 90.9 °F 58.6 °F 30 in WSW 2 mph 4 mph 34 % 0 in
20:32 90.1 °F 58.8 °F 30 in Calm   5 mph 35 % 0 in
20:37 90 °F 59.4 °F 30 in Calm   3 mph 36 % 0 in
20:42 89.6 °F 61.3 °F 30 in Calm   3 mph 39 % 0 in
20:52 88.5 °F 61.9 °F 30 in Calm   1 mph 41 % 0 in
20:57 87.8 °F 61.9 °F 30 in Calm     42 % 0 in
21:02 87.3 °F 62.1 °F 30 in Calm     43 % 0 in
21:12 86.2 °F 63.5 °F 30 in Calm     47 % 0 in
21:17 84.7 °F 62.2 °F 30 in Calm     47 % 0 in
21:22 83.8 °F 61.5 °F 30 in Calm     47 % 0 in
21:32 82.9 °F 63 °F 30 in West 1 mph 1 mph 51 % 0 in
21:42 81.9 °F 62.4 °F 30 in Calm   2 mph 52 % 0 in
21:52 80.8 °F 62.1 °F 30 in Calm   2 mph 53 % 0 in
21:57 80.4 °F 62.2 °F 30 in Calm   1 mph 54 % 0 in
22:02 79.9 °F 62.2 °F 30 in Calm   1 mph 55 % 0 in
22:12 79.3 °F 62.8 °F 30 in Calm     57 % 0 in
22:17 78.8 °F 62.8 °F 30 in Calm     58 % 0 in
22:22 78.4 °F 63 °F 30 in WNW 1 mph   59 % 0 in
22:32 77.7 °F 62.8 °F 30 in Calm   1 mph 60 % 0 in
22:47 76.8 °F 61.3 °F 30 in Calm     59 % 0 in
22:52 76.8 °F 61.9 °F 30 in Calm     60 % 0 in
23:02 76.5 °F 61.5 °F 30 in Calm     60 % 0 in
23:12 75.9 °F 61.5 °F 30 in Calm     61 % 0 in
23:17 75.7 °F 61.3 °F 30 in Calm   1 mph 61 % 0 in
23:22 75.6 °F 61.2 °F 30 in Calm   1 mph 61 % 0 in
23:32 75.4 °F 61.5 °F 30 in Calm     62 % 0 in
23:42 74.8 °F 61 °F 30 in Calm     62 % 0 in
23:47 74.8 °F 60.4 °F 30 in Calm   1 mph 61 % 0 in
23:52 74.7 °F 60.8 °F 30 in SSW 2 mph 2 mph 62 % 0 in
23:57 74.5 °F 61 °F 30 in South 1 mph 2 mph 63 % 0 in
Meteo18
Compliments of Weather Underground - 4 mb

Script developed by  Jim McMurry - jmcmurry@mwt.net Adapted for the template by  Wim van der Kuil - Leuven-Template.eu

You find our weather info also at:

European Weather Network

Weather Underground

Equipment we use:

Weather-station
Davis Vue

Weather-program
Meteohub

Weather-server
Raspberry PI 2 B+

Provider
1 and 1

Davis Vue

Meteohub

Raspberry PI 2 B+

1 and 1